sensor_id;sensor_type;location;lat;lon;timestamp;P1;durP1;ratioP1;P2;durP2;ratioP2
31464;SDS011;18089;47.428;15.006;2022-12-22T00:01:43;73.90;;;48.60;;
31464;SDS011;18089;47.428;15.006;2022-12-22T00:04:34;81.87;;;47.63;;
31464;SDS011;18089;47.428;15.006;2022-12-22T00:07:24;91.90;;;51.40;;
31464;SDS011;18089;47.428;15.006;2022-12-22T00:10:14;86.00;;;49.10;;
31464;SDS011;18089;47.428;15.006;2022-12-22T00:13:03;79.23;;;46.40;;
31464;SDS011;18089;47.428;15.006;2022-12-22T00:15:54;86.93;;;50.23;;
31464;SDS011;18089;47.428;15.006;2022-12-22T00:18:43;89.33;;;49.73;;
31464;SDS011;18089;47.428;15.006;2022-12-22T00:21:33;89.73;;;50.47;;
31464;SDS011;18089;47.428;15.006;2022-12-22T00:24:22;87.97;;;50.27;;
31464;SDS011;18089;47.428;15.006;2022-12-22T00:27:12;90.23;;;49.13;;
31464;SDS011;18089;47.428;15.006;2022-12-22T00:30:03;78.77;;;46.70;;
31464;SDS011;18089;47.428;15.006;2022-12-22T00:32:55;76.17;;;44.27;;
31464;SDS011;18089;47.428;15.006;2022-12-22T00:35:44;77.90;;;43.87;;
31464;SDS011;18089;47.428;15.006;2022-12-22T00:38:33;75.97;;;45.27;;
31464;SDS011;18089;47.428;15.006;2022-12-22T00:41:23;70.67;;;43.37;;
31464;SDS011;18089;47.428;15.006;2022-12-22T00:44:12;69.57;;;41.43;;
31464;SDS011;18089;47.428;15.006;2022-12-22T00:47:02;67.83;;;40.67;;
31464;SDS011;18089;47.428;15.006;2022-12-22T00:49:52;64.70;;;40.43;;
31464;SDS011;18089;47.428;15.006;2022-12-22T00:52:42;69.53;;;40.27;;
31464;SDS011;18089;47.428;15.006;2022-12-22T00:55:31;75.67;;;43.37;;
31464;SDS011;18089;47.428;15.006;2022-12-22T00:58:21;68.60;;;41.63;;
31464;SDS011;18089;47.428;15.006;2022-12-22T01:01:11;63.60;;;40.70;;
31464;SDS011;18089;47.428;15.006;2022-12-22T01:04:00;61.93;;;39.63;;
31464;SDS011;18089;47.428;15.006;2022-12-22T01:06:51;63.00;;;39.87;;
31464;SDS011;18089;47.428;15.006;2022-12-22T01:09:40;64.43;;;39.17;;
31464;SDS011;18089;47.428;15.006;2022-12-22T01:12:30;70.30;;;41.13;;
31464;SDS011;18089;47.428;15.006;2022-12-22T01:15:20;63.07;;;39.93;;
31464;SDS011;18089;47.428;15.006;2022-12-22T01:18:10;60.97;;;38.47;;
31464;SDS011;18089;47.428;15.006;2022-12-22T01:20:59;56.83;;;37.03;;
31464;SDS011;18089;47.428;15.006;2022-12-22T01:23:50;57.37;;;37.23;;
31464;SDS011;18089;47.428;15.006;2022-12-22T01:26:40;49.80;;;33.20;;
31464;SDS011;18089;47.428;15.006;2022-12-22T01:29:29;60.87;;;35.73;;
31464;SDS011;18089;47.428;15.006;2022-12-22T01:32:18;65.20;;;39.03;;
31464;SDS011;18089;47.428;15.006;2022-12-22T01:35:09;66.87;;;40.17;;
31464;SDS011;18089;47.428;15.006;2022-12-22T01:38:06;73.40;;;40.83;;
31464;SDS011;18089;47.428;15.006;2022-12-22T01:40:57;64.80;;;40.30;;
31464;SDS011;18089;47.428;15.006;2022-12-22T01:43:47;58.57;;;36.37;;
31464;SDS011;18089;47.428;15.006;2022-12-22T01:46:39;50.27;;;31.17;;
31464;SDS011;18089;47.428;15.006;2022-12-22T01:49:31;46.37;;;31.07;;
31464;SDS011;18089;47.428;15.006;2022-12-22T01:52:23;44.60;;;30.97;;
31464;SDS011;18089;47.428;15.006;2022-12-22T01:55:14;53.43;;;32.93;;
31464;SDS011;18089;47.428;15.006;2022-12-22T01:58:07;51.57;;;33.20;;
31464;SDS011;18089;47.428;15.006;2022-12-22T02:01:04;50.63;;;33.53;;
31464;SDS011;18089;47.428;15.006;2022-12-22T02:03:53;52.40;;;34.57;;
31464;SDS011;18089;47.428;15.006;2022-12-22T02:06:43;46.40;;;32.10;;
31464;SDS011;18089;47.428;15.006;2022-12-22T02:09:36;46.27;;;30.90;;
31464;SDS011;18089;47.428;15.006;2022-12-22T02:12:35;51.47;;;31.47;;
31464;SDS011;18089;47.428;15.006;2022-12-22T02:15:29;49.77;;;31.40;;
31464;SDS011;18089;47.428;15.006;2022-12-22T02:18:23;43.73;;;30.50;;
31464;SDS011;18089;47.428;15.006;2022-12-22T02:21:16;37.23;;;25.43;;
31464;SDS011;18089;47.428;15.006;2022-12-22T02:24:12;40.10;;;26.70;;
31464;SDS011;18089;47.428;15.006;2022-12-22T02:27:07;45.33;;;29.73;;
31464;SDS011;18089;47.428;15.006;2022-12-22T02:29:59;41.57;;;28.43;;
31464;SDS011;18089;47.428;15.006;2022-12-22T02:32:53;47.47;;;29.40;;
31464;SDS011;18089;47.428;15.006;2022-12-22T02:35:44;53.47;;;35.03;;
31464;SDS011;18089;47.428;15.006;2022-12-22T02:38:38;48.27;;;32.47;;
31464;SDS011;18089;47.428;15.006;2022-12-22T02:41:32;50.60;;;31.13;;
31464;SDS011;18089;47.428;15.006;2022-12-22T02:44:30;39.57;;;27.90;;
31464;SDS011;18089;47.428;15.006;2022-12-22T02:47:23;40.07;;;27.77;;
31464;SDS011;18089;47.428;15.006;2022-12-22T02:50:17;40.33;;;27.10;;
31464;SDS011;18089;47.428;15.006;2022-12-22T02:53:09;36.47;;;26.47;;
31464;SDS011;18089;47.428;15.006;2022-12-22T02:56:01;32.33;;;24.53;;
31464;SDS011;18089;47.428;15.006;2022-12-22T02:58:52;34.60;;;24.27;;
31464;SDS011;18089;47.428;15.006;2022-12-22T03:01:44;34.63;;;24.77;;
31464;SDS011;18089;47.428;15.006;2022-12-22T03:04:34;31.63;;;23.77;;
31464;SDS011;18089;47.428;15.006;2022-12-22T03:07:23;29.10;;;22.80;;
31464;SDS011;18089;47.428;15.006;2022-12-22T03:10:13;31.63;;;23.60;;
31464;SDS011;18089;47.428;15.006;2022-12-22T03:13:02;32.33;;;23.70;;
31464;SDS011;18089;47.428;15.006;2022-12-22T03:15:51;28.87;;;22.93;;
31464;SDS011;18089;47.428;15.006;2022-12-22T03:18:42;30.33;;;22.47;;
31464;SDS011;18089;47.428;15.006;2022-12-22T03:21:32;29.70;;;24.20;;
31464;SDS011;18089;47.428;15.006;2022-12-22T03:24:21;33.17;;;24.97;;
31464;SDS011;18089;47.428;15.006;2022-12-22T03:27:10;30.43;;;23.97;;
31464;SDS011;18089;47.428;15.006;2022-12-22T03:29:42;33.90;;;25.43;;
31464;SDS011;18089;47.428;15.006;2022-12-22T03:32:14;35.03;;;25.53;;
31464;SDS011;18089;47.428;15.006;2022-12-22T03:34:48;34.63;;;25.80;;
31464;SDS011;18089;47.428;15.006;2022-12-22T03:37:20;33.00;;;25.13;;
31464;SDS011;18089;47.428;15.006;2022-12-22T03:39:52;32.23;;;24.53;;
31464;SDS011;18089;47.428;15.006;2022-12-22T03:42:24;32.37;;;24.70;;
31464;SDS011;18089;47.428;15.006;2022-12-22T03:45:13;29.07;;;21.27;;
31464;SDS011;18089;47.428;15.006;2022-12-22T03:48:02;23.03;;;20.23;;
31464;SDS011;18089;47.428;15.006;2022-12-22T03:50:36;24.40;;;20.53;;
31464;SDS011;18089;47.428;15.006;2022-12-22T03:53:08;28.90;;;22.53;;
31464;SDS011;18089;47.428;15.006;2022-12-22T03:55:40;28.07;;;22.37;;
31464;SDS011;18089;47.428;15.006;2022-12-22T03:58:12;27.73;;;22.60;;
31464;SDS011;18089;47.428;15.006;2022-12-22T04:00:44;26.63;;;22.30;;
31464;SDS011;18089;47.428;15.006;2022-12-22T04:03:16;34.47;;;23.57;;
31464;SDS011;18089;47.428;15.006;2022-12-22T04:05:50;32.83;;;23.80;;
31464;SDS011;18089;47.428;15.006;2022-12-22T04:08:22;37.70;;;25.73;;
31464;SDS011;18089;47.428;15.006;2022-12-22T04:10:54;77.20;;;41.13;;
31464;SDS011;18089;47.428;15.006;2022-12-22T04:13:43;60.13;;;35.77;;
31464;SDS011;18089;47.428;15.006;2022-12-22T04:16:15;50.73;;;31.53;;
31464;SDS011;18089;47.428;15.006;2022-12-22T04:18:47;39.03;;;27.57;;
31464;SDS011;18089;47.428;15.006;2022-12-22T04:21:20;38.10;;;25.70;;
31464;SDS011;18089;47.428;15.006;2022-12-22T04:23:52;41.57;;;27.23;;
31464;SDS011;18089;47.428;15.006;2022-12-22T04:26:25;43.87;;;27.60;;
31464;SDS011;18089;47.428;15.006;2022-12-22T04:28:57;34.43;;;24.43;;
31464;SDS011;18089;47.428;15.006;2022-12-22T04:31:29;33.87;;;24.00;;
31464;SDS011;18089;47.428;15.006;2022-12-22T04:34:01;28.60;;;22.60;;
31464;SDS011;18089;47.428;15.006;2022-12-22T04:36:35;29.97;;;22.80;;
31464;SDS011;18089;47.428;15.006;2022-12-22T04:39:07;35.40;;;24.90;;
31464;SDS011;18089;47.428;15.006;2022-12-22T04:41:39;37.13;;;25.40;;
31464;SDS011;18089;47.428;15.006;2022-12-22T04:44:11;36.73;;;24.00;;
31464;SDS011;18089;47.428;15.006;2022-12-22T04:46:43;31.60;;;24.90;;
31464;SDS011;18089;47.428;15.006;2022-12-22T04:49:15;32.47;;;23.97;;
31464;SDS011;18089;47.428;15.006;2022-12-22T04:51:49;30.27;;;23.43;;
31464;SDS011;18089;47.428;15.006;2022-12-22T04:54:21;28.60;;;21.00;;
31464;SDS011;18089;47.428;15.006;2022-12-22T04:56:53;27.13;;;21.67;;
31464;SDS011;18089;47.428;15.006;2022-12-22T04:59:25;29.30;;;22.90;;
31464;SDS011;18089;47.428;15.006;2022-12-22T05:01:57;32.00;;;23.07;;
31464;SDS011;18089;47.428;15.006;2022-12-22T05:04:29;30.87;;;23.00;;
31464;SDS011;18089;47.428;15.006;2022-12-22T05:07:03;33.63;;;24.03;;
31464;SDS011;18089;47.428;15.006;2022-12-22T05:09:36;31.87;;;23.13;;
31464;SDS011;18089;47.428;15.006;2022-12-22T05:12:08;30.90;;;23.53;;
31464;SDS011;18089;47.428;15.006;2022-12-22T05:14:54;29.53;;;22.93;;
31464;SDS011;18089;47.428;15.006;2022-12-22T05:17:26;30.87;;;24.00;;
31464;SDS011;18089;47.428;15.006;2022-12-22T05:19:58;30.23;;;22.73;;
31464;SDS011;18089;47.428;15.006;2022-12-22T05:22:32;30.53;;;22.70;;
31464;SDS011;18089;47.428;15.006;2022-12-22T05:25:04;30.67;;;22.20;;
31464;SDS011;18089;47.428;15.006;2022-12-22T05:27:36;27.37;;;21.60;;
31464;SDS011;18089;47.428;15.006;2022-12-22T05:30:09;27.93;;;22.23;;
31464;SDS011;18089;47.428;15.006;2022-12-22T05:32:42;30.47;;;22.07;;
31464;SDS011;18089;47.428;15.006;2022-12-22T05:35:14;31.77;;;22.67;;
31464;SDS011;18089;47.428;15.006;2022-12-22T05:37:48;30.80;;;22.63;;
31464;SDS011;18089;47.428;15.006;2022-12-22T05:40:20;31.97;;;24.20;;
31464;SDS011;18089;47.428;15.006;2022-12-22T05:42:52;34.37;;;25.00;;
31464;SDS011;18089;47.428;15.006;2022-12-22T05:45:24;29.83;;;22.97;;
31464;SDS011;18089;47.428;15.006;2022-12-22T05:47:56;30.00;;;22.23;;
31464;SDS011;18089;47.428;15.006;2022-12-22T05:50:28;30.30;;;22.67;;
31464;SDS011;18089;47.428;15.006;2022-12-22T05:53:03;29.47;;;22.87;;
31464;SDS011;18089;47.428;15.006;2022-12-22T05:55:35;30.70;;;23.10;;
31464;SDS011;18089;47.428;15.006;2022-12-22T05:58:07;31.67;;;23.00;;
31464;SDS011;18089;47.428;15.006;2022-12-22T06:00:39;41.80;;;26.30;;
31464;SDS011;18089;47.428;15.006;2022-12-22T06:03:11;40.37;;;26.43;;
31464;SDS011;18089;47.428;15.006;2022-12-22T06:05:43;33.40;;;24.30;;
31464;SDS011;18089;47.428;15.006;2022-12-22T06:08:17;30.17;;;23.53;;
31464;SDS011;18089;47.428;15.006;2022-12-22T06:10:49;33.00;;;23.80;;
31464;SDS011;18089;47.428;15.006;2022-12-22T06:13:21;35.23;;;23.90;;
31464;SDS011;18089;47.428;15.006;2022-12-22T06:15:53;60.80;;;31.10;;
31464;SDS011;18089;47.428;15.006;2022-12-22T06:18:25;48.50;;;27.70;;
31464;SDS011;18089;47.428;15.006;2022-12-22T06:20:58;51.63;;;29.23;;
31464;SDS011;18089;47.428;15.006;2022-12-22T06:23:31;38.90;;;26.17;;
31464;SDS011;18089;47.428;15.006;2022-12-22T06:26:03;46.30;;;27.13;;
31464;SDS011;18089;47.428;15.006;2022-12-22T06:28:36;42.10;;;27.47;;
31464;SDS011;18089;47.428;15.006;2022-12-22T06:31:08;50.53;;;28.43;;
31464;SDS011;18089;47.428;15.006;2022-12-22T06:33:40;46.60;;;27.20;;
31464;SDS011;18089;47.428;15.006;2022-12-22T06:36:12;48.93;;;28.17;;
31464;SDS011;18089;47.428;15.006;2022-12-22T06:38:45;42.37;;;27.97;;
31464;SDS011;18089;47.428;15.006;2022-12-22T06:41:17;71.93;;;38.50;;
31464;SDS011;18089;47.428;15.006;2022-12-22T06:44:09;132.43;;;47.77;;
31464;SDS011;18089;47.428;15.006;2022-12-22T06:46:40;58.10;;;30.47;;
31464;SDS011;18089;47.428;15.006;2022-12-22T06:49:12;45.77;;;26.33;;
31464;SDS011;18089;47.428;15.006;2022-12-22T06:51:44;41.60;;;25.10;;
31464;SDS011;18089;47.428;15.006;2022-12-22T06:54:18;47.53;;;27.67;;
31464;SDS011;18089;47.428;15.006;2022-12-22T06:56:50;44.57;;;25.90;;
31464;SDS011;18089;47.428;15.006;2022-12-22T06:59:22;44.13;;;26.50;;
31464;SDS011;18089;47.428;15.006;2022-12-22T07:01:54;39.00;;;25.20;;
31464;SDS011;18089;47.428;15.006;2022-12-22T07:04:26;39.63;;;26.03;;
31464;SDS011;18089;47.428;15.006;2022-12-22T07:06:59;39.00;;;25.80;;
31464;SDS011;18089;47.428;15.006;2022-12-22T07:09:33;37.00;;;26.40;;
31464;SDS011;18089;47.428;15.006;2022-12-22T07:12:06;39.90;;;27.20;;
31464;SDS011;18089;47.428;15.006;2022-12-22T07:14:38;45.17;;;29.30;;
31464;SDS011;18089;47.428;15.006;2022-12-22T07:17:10;41.33;;;26.60;;
31464;SDS011;18089;47.428;15.006;2022-12-22T07:19:42;56.50;;;30.47;;
31464;SDS011;18089;47.428;15.006;2022-12-22T07:22:15;63.00;;;30.33;;
31464;SDS011;18089;47.428;15.006;2022-12-22T07:24:48;42.03;;;26.83;;
31464;SDS011;18089;47.428;15.006;2022-12-22T07:27:20;39.60;;;25.23;;
31464;SDS011;18089;47.428;15.006;2022-12-22T07:29:52;35.33;;;24.43;;
31464;SDS011;18089;47.428;15.006;2022-12-22T07:32:24;39.23;;;25.37;;
31464;SDS011;18089;47.428;15.006;2022-12-22T07:34:56;46.63;;;28.07;;
31464;SDS011;18089;47.428;15.006;2022-12-22T07:37:28;43.77;;;27.73;;
31464;SDS011;18089;47.428;15.006;2022-12-22T07:40:01;46.27;;;27.13;;
31464;SDS011;18089;47.428;15.006;2022-12-22T07:42:34;43.67;;;26.97;;
31464;SDS011;18089;47.428;15.006;2022-12-22T07:45:15;49.17;;;29.53;;
31464;SDS011;18089;47.428;15.006;2022-12-22T07:47:48;47.33;;;29.90;;
31464;SDS011;18089;47.428;15.006;2022-12-22T07:50:20;51.03;;;28.90;;
31464;SDS011;18089;47.428;15.006;2022-12-22T07:52:54;48.87;;;27.97;;
31464;SDS011;18089;47.428;15.006;2022-12-22T07:55:29;43.07;;;26.60;;
31464;SDS011;18089;47.428;15.006;2022-12-22T07:58:01;41.23;;;27.27;;
31464;SDS011;18089;47.428;15.006;2022-12-22T08:00:33;48.07;;;29.97;;
31464;SDS011;18089;47.428;15.006;2022-12-22T08:03:05;50.13;;;32.83;;
31464;SDS011;18089;47.428;15.006;2022-12-22T08:05:39;50.60;;;32.37;;
31464;SDS011;18089;47.428;15.006;2022-12-22T08:08:11;47.80;;;32.03;;
31464;SDS011;18089;47.428;15.006;2022-12-22T08:10:44;54.43;;;33.03;;
31464;SDS011;18089;47.428;15.006;2022-12-22T08:13:16;47.63;;;31.67;;
31464;SDS011;18089;47.428;15.006;2022-12-22T08:15:49;46.53;;;32.57;;
31464;SDS011;18089;47.428;15.006;2022-12-22T08:18:21;57.43;;;35.93;;
31464;SDS011;18089;47.428;15.006;2022-12-22T08:20:53;50.00;;;32.07;;
31464;SDS011;18089;47.428;15.006;2022-12-22T08:23:25;53.70;;;34.27;;
31464;SDS011;18089;47.428;15.006;2022-12-22T08:25:59;42.73;;;28.50;;
31464;SDS011;18089;47.428;15.006;2022-12-22T08:28:34;41.00;;;28.23;;
31464;SDS011;18089;47.428;15.006;2022-12-22T08:31:08;50.20;;;30.77;;
31464;SDS011;18089;47.428;15.006;2022-12-22T08:33:42;42.27;;;28.50;;
31464;SDS011;18089;47.428;15.006;2022-12-22T08:36:14;40.57;;;28.00;;
31464;SDS011;18089;47.428;15.006;2022-12-22T08:38:46;37.27;;;25.90;;
31464;SDS011;18089;47.428;15.006;2022-12-22T08:41:20;34.27;;;26.27;;
31464;SDS011;18089;47.428;15.006;2022-12-22T08:44:12;42.17;;;26.77;;
31464;SDS011;18089;47.428;15.006;2022-12-22T08:46:44;43.13;;;25.87;;
31464;SDS011;18089;47.428;15.006;2022-12-22T08:49:16;36.03;;;23.13;;
31464;SDS011;18089;47.428;15.006;2022-12-22T08:51:48;37.57;;;24.77;;
31464;SDS011;18089;47.428;15.006;2022-12-22T08:54:20;42.37;;;26.67;;
31464;SDS011;18089;47.428;15.006;2022-12-22T08:56:54;35.57;;;25.03;;
31464;SDS011;18089;47.428;15.006;2022-12-22T08:59:27;33.63;;;25.20;;
31464;SDS011;18089;47.428;15.006;2022-12-22T09:01:59;39.33;;;25.47;;
31464;SDS011;18089;47.428;15.006;2022-12-22T09:04:34;32.53;;;24.47;;
31464;SDS011;18089;47.428;15.006;2022-12-22T09:07:07;34.30;;;23.43;;
31464;SDS011;18089;47.428;15.006;2022-12-22T09:09:40;43.00;;;29.70;;
31464;SDS011;18089;47.428;15.006;2022-12-22T09:12:13;41.03;;;27.43;;
31464;SDS011;18089;47.428;15.006;2022-12-22T09:14:45;38.00;;;26.57;;
31464;SDS011;18089;47.428;15.006;2022-12-22T09:17:17;40.53;;;28.90;;
31464;SDS011;18089;47.428;15.006;2022-12-22T09:19:49;35.53;;;25.70;;
31464;SDS011;18089;47.428;15.006;2022-12-22T09:22:21;36.00;;;24.37;;
31464;SDS011;18089;47.428;15.006;2022-12-22T09:24:53;28.93;;;21.97;;
31464;SDS011;18089;47.428;15.006;2022-12-22T09:27:28;33.67;;;22.50;;
31464;SDS011;18089;47.428;15.006;2022-12-22T09:30:00;29.23;;;21.87;;
31464;SDS011;18089;47.428;15.006;2022-12-22T09:32:32;33.07;;;22.30;;
31464;SDS011;18089;47.428;15.006;2022-12-22T09:35:05;30.07;;;21.63;;
31464;SDS011;18089;47.428;15.006;2022-12-22T09:37:37;26.87;;;21.60;;
31464;SDS011;18089;47.428;15.006;2022-12-22T09:40:10;25.90;;;20.20;;
31464;SDS011;18089;47.428;15.006;2022-12-22T09:42:43;26.17;;;20.63;;
31464;SDS011;18089;47.428;15.006;2022-12-22T09:45:16;24.17;;;19.80;;
31464;SDS011;18089;47.428;15.006;2022-12-22T09:47:51;21.40;;;18.13;;
31464;SDS011;18089;47.428;15.006;2022-12-22T09:50:24;18.97;;;16.97;;
31464;SDS011;18089;47.428;15.006;2022-12-22T09:52:57;18.67;;;16.70;;
31464;SDS011;18089;47.428;15.006;2022-12-22T09:55:37;17.77;;;16.00;;
31464;SDS011;18089;47.428;15.006;2022-12-22T09:58:14;18.70;;;16.33;;
31464;SDS011;18089;47.428;15.006;2022-12-22T10:00:49;21.63;;;17.90;;
31464;SDS011;18089;47.428;15.006;2022-12-22T10:03:28;20.07;;;17.23;;
31464;SDS011;18089;47.428;15.006;2022-12-22T10:06:06;22.77;;;18.80;;
31464;SDS011;18089;47.428;15.006;2022-12-22T10:08:41;22.10;;;19.40;;
31464;SDS011;18089;47.428;15.006;2022-12-22T10:11:14;23.50;;;19.53;;
31464;SDS011;18089;47.428;15.006;2022-12-22T10:13:49;23.63;;;19.47;;
31464;SDS011;18089;47.428;15.006;2022-12-22T10:16:22;24.93;;;19.93;;
31464;SDS011;18089;47.428;15.006;2022-12-22T10:18:59;21.93;;;19.53;;
31464;SDS011;18089;47.428;15.006;2022-12-22T10:21:31;28.30;;;22.97;;
31464;SDS011;18089;47.428;15.006;2022-12-22T10:24:13;23.87;;;20.63;;
31464;SDS011;18089;47.428;15.006;2022-12-22T10:26:46;23.33;;;19.60;;
31464;SDS011;18089;47.428;15.006;2022-12-22T10:29:21;22.37;;;18.97;;
31464;SDS011;18089;47.428;15.006;2022-12-22T10:31:55;21.73;;;19.33;;
31464;SDS011;18089;47.428;15.006;2022-12-22T10:34:29;21.60;;;18.20;;
31464;SDS011;18089;47.428;15.006;2022-12-22T10:37:02;20.73;;;18.53;;
31464;SDS011;18089;47.428;15.006;2022-12-22T10:39:36;22.53;;;20.10;;
31464;SDS011;18089;47.428;15.006;2022-12-22T10:42:10;27.33;;;22.70;;
31464;SDS011;18089;47.428;15.006;2022-12-22T10:44:45;29.03;;;22.73;;
31464;SDS011;18089;47.428;15.006;2022-12-22T10:47:19;25.43;;;20.23;;
31464;SDS011;18089;47.428;15.006;2022-12-22T10:49:54;27.47;;;21.33;;
31464;SDS011;18089;47.428;15.006;2022-12-22T10:52:27;25.10;;;20.43;;
31464;SDS011;18089;47.428;15.006;2022-12-22T10:55:13;29.20;;;21.57;;
31464;SDS011;18089;47.428;15.006;2022-12-22T10:57:46;25.93;;;21.17;;
31464;SDS011;18089;47.428;15.006;2022-12-22T11:00:24;24.73;;;19.70;;
31464;SDS011;18089;47.428;15.006;2022-12-22T11:02:58;21.97;;;19.07;;
31464;SDS011;18089;47.428;15.006;2022-12-22T11:05:30;23.07;;;20.03;;
31464;SDS011;18089;47.428;15.006;2022-12-22T11:08:09;25.27;;;21.40;;
31464;SDS011;18089;47.428;15.006;2022-12-22T11:10:48;27.50;;;21.77;;
31464;SDS011;18089;47.428;15.006;2022-12-22T11:13:31;26.70;;;21.97;;
31464;SDS011;18089;47.428;15.006;2022-12-22T11:16:18;23.37;;;19.63;;
31464;SDS011;18089;47.428;15.006;2022-12-22T11:19:00;26.20;;;21.40;;
31464;SDS011;18089;47.428;15.006;2022-12-22T11:21:40;26.47;;;21.33;;
31464;SDS011;18089;47.428;15.006;2022-12-22T11:24:22;28.03;;;22.50;;
31464;SDS011;18089;47.428;15.006;2022-12-22T11:27:05;24.07;;;20.70;;
31464;SDS011;18089;47.428;15.006;2022-12-22T11:32:45;25.47;;;20.07;;
31464;SDS011;18089;47.428;15.006;2022-12-22T11:35:37;25.43;;;20.97;;
31464;SDS011;18089;47.428;15.006;2022-12-22T11:38:19;24.17;;;19.73;;
31464;SDS011;18089;47.428;15.006;2022-12-22T11:40:57;23.17;;;18.85;;
31464;SDS011;18089;47.428;15.006;2022-12-22T11:43:35;23.33;;;19.42;;
31464;SDS011;18089;47.428;15.006;2022-12-22T11:46:14;25.60;;;18.35;;
31464;SDS011;18089;47.428;15.006;2022-12-22T11:49:03;21.95;;;17.33;;
31464;SDS011;18089;47.428;15.006;2022-12-22T11:54:38;22.70;;;17.85;;
31464;SDS011;18089;47.428;15.006;2022-12-22T11:57:17;21.88;;;18.02;;
31464;SDS011;18089;47.428;15.006;2022-12-22T11:59:58;19.63;;;17.13;;
31464;SDS011;18089;47.428;15.006;2022-12-22T12:05:39;20.27;;;17.52;;
31464;SDS011;18089;47.428;15.006;2022-12-22T12:08:33;16.90;;;15.10;;
31464;SDS011;18089;47.428;15.006;2022-12-22T12:11:10;18.85;;;15.45;;
31464;SDS011;18089;47.428;15.006;2022-12-22T12:13:48;16.10;;;13.77;;
31464;SDS011;18089;47.428;15.006;2022-12-22T12:16:27;13.90;;;12.48;;
31464;SDS011;18089;47.428;15.006;2022-12-22T12:21:57;14.02;;;12.63;;
31464;SDS011;18089;47.428;15.006;2022-12-22T12:24:38;13.63;;;11.73;;
31464;SDS011;18089;47.428;15.006;2022-12-22T12:27:17;12.77;;;11.07;;
31464;SDS011;18089;47.428;15.006;2022-12-22T12:30:00;14.50;;;13.00;;
31464;SDS011;18089;47.428;15.006;2022-12-22T12:32:34;14.82;;;13.30;;
31464;SDS011;18089;47.428;15.006;2022-12-22T12:35:15;15.00;;;13.10;;
31464;SDS011;18089;47.428;15.006;2022-12-22T12:38:04;14.18;;;12.60;;
31464;SDS011;18089;47.428;15.006;2022-12-22T12:40:42;15.07;;;13.52;;
31464;SDS011;18089;47.428;15.006;2022-12-22T12:43:19;16.08;;;14.07;;
31464;SDS011;18089;47.428;15.006;2022-12-22T12:45:52;15.27;;;13.68;;
31464;SDS011;18089;47.428;15.006;2022-12-22T12:48:38;13.95;;;12.50;;
31464;SDS011;18089;47.428;15.006;2022-12-22T12:57:22;17.38;;;15.55;;
31464;SDS011;18089;47.428;15.006;2022-12-22T12:59:56;17.90;;;16.00;;
31464;SDS011;18089;47.428;15.006;2022-12-22T13:02:38;21.42;;;18.48;;
31464;SDS011;18089;47.428;15.006;2022-12-22T13:08:15;21.73;;;19.15;;
31464;SDS011;18089;47.428;15.006;2022-12-22T13:14:03;21.95;;;17.88;;
31464;SDS011;18089;47.428;15.006;2022-12-22T13:16:36;24.10;;;19.20;;
31464;SDS011;18089;47.428;15.006;2022-12-22T13:19:23;24.88;;;21.00;;
31464;SDS011;18089;47.428;15.006;2022-12-22T13:21:57;29.23;;;22.83;;
31464;SDS011;18089;47.428;15.006;2022-12-22T13:24:32;27.98;;;21.85;;
31464;SDS011;18089;47.428;15.006;2022-12-22T13:27:09;29.35;;;20.65;;
31464;SDS011;18089;47.428;15.006;2022-12-22T13:29:43;28.33;;;22.00;;
31464;SDS011;18089;47.428;15.006;2022-12-22T13:32:26;24.67;;;21.27;;
31464;SDS011;18089;47.428;15.006;2022-12-22T13:35:05;24.17;;;20.53;;
31464;SDS011;18089;47.428;15.006;2022-12-22T13:37:43;26.20;;;20.90;;
31464;SDS011;18089;47.428;15.006;2022-12-22T13:40:17;25.43;;;21.27;;
31464;SDS011;18089;47.428;15.006;2022-12-22T13:42:52;32.75;;;23.23;;
31464;SDS011;18089;47.428;15.006;2022-12-22T13:45:27;26.83;;;22.47;;
31464;SDS011;18089;47.428;15.006;2022-12-22T13:48:08;47.10;;;33.20;;
31464;SDS011;18089;47.428;15.006;2022-12-22T13:50:43;34.97;;;25.57;;
31464;SDS011;18089;47.428;15.006;2022-12-22T13:53:17;72.97;;;44.33;;
31464;SDS011;18089;47.428;15.006;2022-12-22T13:55:53;36.40;;;28.80;;
31464;SDS011;18089;47.428;15.006;2022-12-22T13:58:27;34.35;;;26.40;;
31464;SDS011;18089;47.428;15.006;2022-12-22T14:01:01;36.23;;;25.93;;
31464;SDS011;18089;47.428;15.006;2022-12-22T14:03:34;34.77;;;27.53;;
31464;SDS011;18089;47.428;15.006;2022-12-22T14:06:17;34.20;;;25.53;;
31464;SDS011;18089;47.428;15.006;2022-12-22T14:09:09;32.00;;;26.47;;
31464;SDS011;18089;47.428;15.006;2022-12-22T14:11:43;35.83;;;25.20;;
31464;SDS011;18089;47.428;15.006;2022-12-22T14:14:19;32.07;;;24.03;;
31464;SDS011;18089;47.428;15.006;2022-12-22T14:16:54;232.60;;;118.57;;
31464;SDS011;18089;47.428;15.006;2022-12-22T14:19:29;45.30;;;30.87;;
31464;SDS011;18089;47.428;15.006;2022-12-22T14:22:03;33.60;;;24.90;;
31464;SDS011;18089;47.428;15.006;2022-12-22T14:24:40;30.93;;;24.57;;
31464;SDS011;18089;47.428;15.006;2022-12-22T14:27:15;29.80;;;24.90;;
31464;SDS011;18089;47.428;15.006;2022-12-22T14:29:50;36.27;;;28.20;;
31464;SDS011;18089;47.428;15.006;2022-12-22T14:32:38;36.17;;;27.13;;
31464;SDS011;18089;47.428;15.006;2022-12-22T14:35:14;34.83;;;26.40;;
31464;SDS011;18089;47.428;15.006;2022-12-22T14:37:53;43.27;;;29.30;;
31464;SDS011;18089;47.428;15.006;2022-12-22T14:40:30;36.60;;;28.07;;
31464;SDS011;18089;47.428;15.006;2022-12-22T14:43:03;35.03;;;26.27;;
31464;SDS011;18089;47.428;15.006;2022-12-22T14:45:38;38.20;;;28.03;;
31464;SDS011;18089;47.428;15.006;2022-12-22T14:48:15;55.70;;;34.77;;
31464;SDS011;18089;47.428;15.006;2022-12-22T14:50:51;41.40;;;30.60;;
31464;SDS011;18089;47.428;15.006;2022-12-22T14:53:24;35.37;;;27.43;;
31464;SDS011;18089;47.428;15.006;2022-12-22T14:55:57;37.70;;;27.90;;
31464;SDS011;18089;47.428;15.006;2022-12-22T14:58:30;39.63;;;29.67;;
31464;SDS011;18089;47.428;15.006;2022-12-22T15:01:12;42.30;;;29.07;;
31464;SDS011;18089;47.428;15.006;2022-12-22T15:04:01;38.40;;;28.63;;
31464;SDS011;18089;47.428;15.006;2022-12-22T15:06:38;48.57;;;35.07;;
31464;SDS011;18089;47.428;15.006;2022-12-22T15:09:24;51.23;;;34.63;;
31464;SDS011;18089;47.428;15.006;2022-12-22T15:12:02;42.87;;;29.40;;
31464;SDS011;18089;47.428;15.006;2022-12-22T15:14:36;41.20;;;30.73;;
31464;SDS011;18089;47.428;15.006;2022-12-22T15:17:14;40.80;;;30.17;;
31464;SDS011;18089;47.428;15.006;2022-12-22T15:19:53;45.13;;;30.63;;
31464;SDS011;18089;47.428;15.006;2022-12-22T15:22:26;54.27;;;36.23;;
31464;SDS011;18089;47.428;15.006;2022-12-22T15:24:58;65.07;;;41.27;;
31464;SDS011;18089;47.428;15.006;2022-12-22T15:27:30;60.23;;;37.17;;
31464;SDS011;18089;47.428;15.006;2022-12-22T15:30:02;59.53;;;38.90;;
31464;SDS011;18089;47.428;15.006;2022-12-22T15:32:36;54.13;;;36.60;;
31464;SDS011;18089;47.428;15.006;2022-12-22T15:35:19;58.77;;;37.60;;
31464;SDS011;18089;47.428;15.006;2022-12-22T15:37:54;57.87;;;37.37;;